Time,TemperatureF,DewpointF,PressureIn,WindDirection,WindDirectionDegrees,WindSpeedMPH,WindSpeedGustMPH,Humidity,HourlyPrecipIn,Conditions,Clouds,dailyrainin,SoftwareType,DateUTC
2013-03-02 00:09:00,34.8,22.0,30.34,SSW,212,1.0,1.0,61,0.00,,,0.00,weatherlink.com 1.10,2013-03-02 07:09:00,
2013-03-02 00:24:00,39.3,22.0,30.34,West,281,1.0,3.0,51,0.00,,,0.00,weatherlink.com 1.10,2013-03-02 07:24:00,
2013-03-02 00:39:00,41.3,22.0,30.34,NW,309,0.0,4.0,46,0.00,,,0.00,weatherlink.com 1.10,2013-03-02 07:39:00,
2013-03-02 00:54:00,39.8,22.0,30.35,West,276,0.0,4.0,49,0.00,,,0.00,weatherlink.com 1.10,2013-03-02 07:54:00,
2013-03-02 01:09:00,37.5,22.0,30.35,West,273,0.0,1.0,53,0.00,,,0.00,weatherlink.com 1.10,2013-03-02 08:09:00,
2013-03-02 01:24:00,35.0,22.0,30.35,West,273,2.0,2.0,59,0.00,,,0.00,weatherlink.com 1.10,2013-03-02 08:24:00,
2013-03-02 01:39:00,33.9,22.0,30.35,West,273,0.0,1.0,61,0.00,,,0.00,weatherlink.com 1.10,2013-03-02 08:39:00,
2013-03-02 01:54:00,32.8,22.0,30.34,West,273,0.0,2.0,65,0.00,,,0.00,weatherlink.com 1.10,2013-03-02 08:54:00,
2013-03-02 02:09:00,32.4,22.0,30.34,SW,230,0.0,3.0,65,0.00,,,0.00,weatherlink.com 1.10,2013-03-02 09:09:00,
2013-03-02 02:24:00,32.8,22.0,30.34,NNE,21,0.0,3.0,64,0.00,,,0.00,weatherlink.com 1.10,2013-03-02 09:24:00,
2013-03-02 02:39:00,40.9,22.0,30.33,NW,325,5.0,10.0,48,0.00,,,0.00,weatherlink.com 1.10,2013-03-02 09:39:00,
2013-03-02 02:54:00,43.9,21.0,30.32,WNW,295,1.0,8.0,41,0.00,,,0.00,weatherlink.com 1.10,2013-03-02 09:54:00,
2013-03-02 03:09:00,42.9,21.0,30.32,WSW,245,0.0,3.0,42,0.00,,,0.00,weatherlink.com 1.10,2013-03-02 10:09:00,
2013-03-02 03:24:00,39.7,21.0,30.32,South,183,0.0,2.0,47,0.00,,,0.00,weatherlink.com 1.10,2013-03-02 10:24:00,
2013-03-02 03:40:00,39.5,21.0,30.32,West,272,0.0,6.0,48,0.00,,,0.00,weatherlink.com 1.10,2013-03-02 10:40:00,
2013-03-02 03:54:00,35.5,21.0,30.32,SW,226,0.0,2.0,55,0.00,,,0.00,weatherlink.com 1.10,2013-03-02 10:54:00,
2013-03-02 04:09:00,32.6,20.0,30.32,South,189,0.0,2.0,61,0.00,,,0.00,weatherlink.com 1.10,2013-03-02 11:09:00,
2013-03-02 04:24:00,30.9,20.0,30.32,South,189,0.0,1.0,65,0.00,,,0.00,weatherlink.com 1.10,2013-03-02 11:24:00,
2013-03-02 04:40:00,29.9,20.0,30.32,South,189,0.0,2.0,67,0.00,,,0.00,weatherlink.com 1.10,2013-03-02 11:40:00,
2013-03-02 04:55:00,30.0,20.0,30.32,South,188,0.0,2.0,67,0.00,,,0.00,weatherlink.com 1.10,2013-03-02 11:55:00,
2013-03-02 05:10:00,29.2,20.0,30.32,SW,223,0.0,2.0,69,0.00,,,0.00,weatherlink.com 1.10,2013-03-02 12:10:00,
2013-03-02 05:25:00,29.0,20.0,30.32,SW,223,0.0,2.0,70,0.00,,,0.00,weatherlink.com 1.10,2013-03-02 12:25:00,
2013-03-02 05:40:00,28.7,20.0,30.33,SW,223,0.0,0.0,70,0.00,,,0.00,weatherlink.com 1.10,2013-03-02 12:40:00,
2013-03-02 05:55:00,28.7,20.0,30.33,SW,223,0.0,1.0,71,0.00,,,0.00,weatherlink.com 1.10,2013-03-02 12:55:00,
2013-03-02 06:10:00,28.5,20.0,30.33,SW,223,0.0,2.0,71,0.00,,,0.00,weatherlink.com 1.10,2013-03-02 13:10:00,
2013-03-02 06:25:00,29.4,20.0,30.33,SW,223,1.0,2.0,69,0.00,,,0.00,weatherlink.com 1.10,2013-03-02 13:25:00,
2013-03-02 06:40:00,29.3,20.0,30.33,SW,223,0.0,1.0,69,0.00,,,0.00,weatherlink.com 1.10,2013-03-02 13:40:00,
2013-03-02 06:55:00,30.1,20.0,30.34,SW,217,0.0,3.0,67,0.00,,,0.00,weatherlink.com 1.10,2013-03-02 13:55:00,
2013-03-02 07:10:00,30.8,20.0,30.34,SW,217,0.0,2.0,65,0.00,,,0.00,weatherlink.com 1.10,2013-03-02 14:10:00,
2013-03-02 07:25:00,32.1,21.0,30.34,SW,217,0.0,2.0,63,0.00,,,0.00,weatherlink.com 1.10,2013-03-02 14:25:00,
2013-03-02 07:40:00,33.2,21.0,30.34,SW,217,0.0,1.0,61,0.00,,,0.00,weatherlink.com 1.10,2013-03-02 14:40:00,
2013-03-02 07:55:00,34.0,21.0,30.34,SW,217,0.0,2.0,59,0.00,,,0.00,weatherlink.com 1.10,2013-03-02 14:55:00,
2013-03-02 08:10:00,36.1,22.0,30.34,SW,217,1.0,1.0,56,0.00,,,0.00,weatherlink.com 1.10,2013-03-02 15:10:00,
2013-03-02 08:25:00,38.9,22.0,30.33,SW,216,0.0,2.0,52,0.00,,,0.00,weatherlink.com 1.10,2013-03-02 15:25:00,
2013-03-02 08:40:00,42.5,23.0,30.33,SSW,199,0.0,2.0,46,0.00,,,0.00,weatherlink.com 1.10,2013-03-02 15:40:00,
2013-03-02 08:55:00,44.5,22.0,30.32,SSW,198,1.0,4.0,41,0.00,,,0.00,weatherlink.com 1.10,2013-03-02 15:55:00,
2013-03-02 09:10:00,45.2,23.0,30.32,SE,146,4.0,4.0,41,0.00,,,0.00,weatherlink.com 1.10,2013-03-02 16:10:00,
2013-03-02 09:25:00,45.5,22.0,30.32,SSE,155,0.0,5.0,40,0.00,,,0.00,weatherlink.com 1.10,2013-03-02 16:25:00,
2013-03-02 09:40:00,46.8,23.0,30.32,SSE,147,2.0,4.0,39,0.00,,,0.00,weatherlink.com 1.10,2013-03-02 16:40:00,
2013-03-02 09:55:00,48.2,23.0,30.31,SSW,205,1.0,5.0,37,0.00,,,0.00,weatherlink.com 1.10,2013-03-02 16:55:00,
2013-03-02 10:10:00,49.2,22.0,30.30,SSW,202,1.0,4.0,35,0.00,,,0.00,weatherlink.com 1.10,2013-03-02 17:10:00,
2013-03-02 10:25:00,50.5,23.0,30.29,SSW,196,5.0,5.0,34,0.00,,,0.00,weatherlink.com 1.10,2013-03-02 17:25:00,
2013-03-02 10:40:00,51.9,23.0,30.29,SSW,197,2.0,3.0,32,0.00,,,0.00,weatherlink.com 1.10,2013-03-02 17:40:00,
2013-03-02 10:55:00,52.5,22.0,30.29,South,172,2.0,6.0,30,0.00,,,0.00,weatherlink.com 1.10,2013-03-02 17:55:00,
2013-03-02 11:10:00,52.9,20.0,30.28,SW,223,1.0,4.0,28,0.00,,,0.00,weatherlink.com 1.10,2013-03-02 18:10:00,
2013-03-02 11:25:00,54.8,20.0,30.28,NW,317,5.0,13.0,26,0.00,,,0.00,weatherlink.com 1.10,2013-03-02 18:25:00,
2013-03-02 11:40:00,55.4,20.0,30.27,NNW,348,3.0,17.0,25,0.00,,,0.00,weatherlink.com 1.10,2013-03-02 18:40:00,
2013-03-02 11:55:00,55.3,21.0,30.26,WNW,302,4.0,14.0,26,0.00,,,0.00,weatherlink.com 1.10,2013-03-02 18:55:00,
2013-03-02 12:11:00,55.5,21.0,30.25,NNW,345,4.0,13.0,26,0.00,,,0.00,weatherlink.com 1.10,2013-03-02 19:11:00,
2013-03-02 12:26:00,55.7,21.0,30.24,WNW,293,6.0,9.0,26,0.00,,,0.00,weatherlink.com 1.10,2013-03-02 19:26:00,
2013-03-02 12:41:00,55.5,20.0,30.23,NW,306,6.0,11.0,25,0.00,,,0.00,weatherlink.com 1.10,2013-03-02 19:41:00,
2013-03-02 12:56:00,56.5,20.0,30.21,WNW,285,11.0,16.0,24,0.00,,,0.00,weatherlink.com 1.10,2013-03-02 19:56:00,
2013-03-02 13:11:00,57.1,20.0,30.20,WNW,294,2.0,15.0,24,0.00,,,0.00,weatherlink.com 1.10,2013-03-02 20:11:00,
2013-03-02 13:41:00,58.6,21.0,30.18,WNW,286,5.0,14.0,23,0.00,,,0.00,weatherlink.com 1.10,2013-03-02 20:41:00,
2013-03-02 13:56:00,59.6,20.0,30.17,WNW,299,4.0,12.0,22,0.00,,,0.00,weatherlink.com 1.10,2013-03-02 20:56:00,
2013-03-02 14:11:00,59.9,20.0,30.17,WNW,291,9.0,12.0,21,0.00,,,0.00,weatherlink.com 1.10,2013-03-02 21:11:00,
2013-03-02 14:26:00,59.9,21.0,30.16,NNW,329,1.0,13.0,22,0.00,,,0.00,weatherlink.com 1.10,2013-03-02 21:26:00,
2013-03-02 14:41:00,59.5,20.0,30.16,NW,317,4.0,13.0,22,0.00,,,0.00,weatherlink.com 1.10,2013-03-02 21:41:00,
2013-03-02 14:56:00,59.4,19.0,30.15,WSW,257,6.0,13.0,21,0.00,,,0.00,weatherlink.com 1.10,2013-03-02 21:56:00,
2013-03-02 15:11:00,58.8,20.0,30.15,NNW,338,3.0,14.0,22,0.00,,,0.00,weatherlink.com 1.10,2013-03-02 22:11:00,
2013-03-02 15:26:00,59.0,19.0,30.15,WNW,300,5.0,12.0,21,0.00,,,0.00,weatherlink.com 1.10,2013-03-02 22:26:00,
2013-03-02 15:41:00,58.6,20.0,30.14,NE,42,0.0,4.0,22,0.00,,,0.00,weatherlink.com 1.10,2013-03-02 22:41:00,
2013-03-02 15:56:00,58.3,19.0,30.14,NNW,331,0.0,8.0,22,0.00,,,0.00,weatherlink.com 1.10,2013-03-02 22:56:00,
2013-03-02 16:11:00,58.6,19.0,30.14,North,5,2.0,9.0,21,0.00,,,0.00,weatherlink.com 1.10,2013-03-02 23:11:00,
2013-03-02 16:26:00,58.5,20.0,30.13,WNW,302,0.0,10.0,22,0.00,,,0.00,weatherlink.com 1.10,2013-03-02 23:26:00,
2013-03-02 16:41:00,57.3,19.0,30.13,NW,304,2.0,5.0,22,0.00,,,0.00,weatherlink.com 1.10,2013-03-02 23:41:00,
2013-03-02 16:56:00,56.6,18.0,30.13,NE,45,0.0,4.0,22,0.00,,,0.00,weatherlink.com 1.10,2013-03-02 23:56:00,
2013-03-02 17:26:00,55.7,18.0,30.14,NE,43,0.0,1.0,23,0.00,,,0.00,weatherlink.com 1.10,2013-03-03 00:26:00,
2013-03-02 17:41:00,55.0,19.0,30.14,NE,43,0.0,1.0,24,0.00,,,0.00,weatherlink.com 1.10,2013-03-03 00:41:00,
2013-03-02 17:56:00,54.0,20.0,30.14,NE,43,0.0,0.0,26,0.00,,,0.00,weatherlink.com 1.10,2013-03-03 00:56:00,
2013-03-02 18:11:00,52.2,22.0,30.13,NE,43,0.0,0.0,31,0.00,,,0.00,weatherlink.com 1.10,2013-03-03 01:11:00,
2013-03-02 18:26:00,50.4,24.0,30.13,NE,43,0.0,0.0,35,0.00,,,0.00,weatherlink.com 1.10,2013-03-03 01:26:00,
2013-03-02 18:41:00,48.8,25.0,30.12,NE,43,0.0,1.0,39,0.00,,,0.00,weatherlink.com 1.10,2013-03-03 01:41:00,
2013-03-02 18:56:00,47.6,25.0,30.12,NE,43,0.0,1.0,42,0.00,,,0.00,weatherlink.com 1.10,2013-03-03 01:56:00,
2013-03-02 19:11:00,46.7,24.0,30.12,NE,43,0.0,1.0,41,0.00,,,0.00,weatherlink.com 1.10,2013-03-03 02:11:00,
2013-03-02 19:26:00,46.0,26.0,30.11,NE,43,0.0,1.0,45,0.00,,,0.00,weatherlink.com 1.10,2013-03-03 02:26:00,
2013-03-02 19:41:00,45.8,23.0,30.11,NE,43,0.0,1.0,41,0.00,,,0.00,weatherlink.com 1.10,2013-03-03 02:41:00,
2013-03-02 19:56:00,45.7,22.0,30.11,NE,43,0.0,1.0,40,0.00,,,0.00,weatherlink.com 1.10,2013-03-03 02:56:00,
2013-03-02 20:11:00,45.7,24.0,30.10,WSW,254,1.0,2.0,43,0.00,,,0.00,weatherlink.com 1.10,2013-03-03 03:11:00,
2013-03-02 20:26:00,44.7,24.0,30.10,SSW,213,0.0,2.0,44,0.00,,,0.00,weatherlink.com 1.10,2013-03-03 03:26:00,
2013-03-02 20:41:00,44.2,24.0,30.11,SSW,195,0.0,1.0,46,0.00,,,0.00,weatherlink.com 1.10,2013-03-03 03:41:00,
2013-03-02 20:56:00,44.0,25.0,30.10,SW,225,1.0,3.0,47,0.00,,,0.00,weatherlink.com 1.10,2013-03-03 03:56:00,
2013-03-02 21:11:00,43.3,25.0,30.09,WSW,257,0.0,1.0,49,0.00,,,0.00,weatherlink.com 1.10,2013-03-03 04:11:00,
2013-03-02 21:26:00,43.4,25.0,30.09,SW,218,2.0,3.0,48,0.00,,,0.00,weatherlink.com 1.10,2013-03-03 04:26:00,
2013-03-02 21:41:00,43.7,25.0,30.08,South,190,1.0,5.0,48,0.00,,,0.00,weatherlink.com 1.10,2013-03-03 04:41:00,
2013-03-02 21:56:00,43.8,25.0,30.07,SSW,206,2.0,4.0,47,0.00,,,0.00,weatherlink.com 1.10,2013-03-03 04:56:00,
2013-03-02 22:11:00,43.4,25.0,30.06,SSW,193,0.0,4.0,48,0.00,,,0.00,weatherlink.com 1.10,2013-03-03 05:11:00,
2013-03-02 22:26:00,42.8,25.0,30.06,SSW,203,0.0,1.0,50,0.00,,,0.00,weatherlink.com 1.10,2013-03-03 05:26:00,
2013-03-02 22:41:00,42.3,25.0,30.05,SSW,204,0.0,2.0,51,0.00,,,0.00,weatherlink.com 1.10,2013-03-03 05:41:00,
2013-03-02 22:57:00,41.4,25.0,30.04,SSW,204,0.0,0.0,53,0.00,,,0.00,weatherlink.com 1.10,2013-03-03 05:57:00,
2013-03-02 23:12:00,40.5,25.0,30.03,SSW,204,0.0,1.0,55,0.00,,,0.00,weatherlink.com 1.10,2013-03-03 06:12:00,
2013-03-02 23:27:00,40.2,25.0,30.02,SSW,204,0.0,1.0,56,0.00,,,0.00,weatherlink.com 1.10,2013-03-03 06:27:00,
2013-03-02 23:42:00,39.2,26.0,30.01,SSW,204,0.0,1.0,59,0.00,,,0.00,weatherlink.com 1.10,2013-03-03 06:42:00,
2013-03-02 23:57:00,38.6,26.0,30.00,SSW,204,0.0,0.0,61,0.00,,,0.00,weatherlink.com 1.10,2013-03-03 06:57:00,